createdAt,value
2022-08-16T00:00:04.441Z,17.69
2022-08-16T00:01:01.232Z,17.66
2022-08-16T00:02:00.265Z,17.66
2022-08-16T00:03:00.197Z,17.65
2022-08-16T00:04:00.255Z,17.65
2022-08-16T00:05:00.388Z,17.63
2022-08-16T00:06:00.182Z,17.62
2022-08-16T00:07:00.150Z,17.62
2022-08-16T00:08:00.149Z,17.60
2022-08-16T00:09:00.151Z,17.58
2022-08-16T00:10:00.263Z,17.58
2022-08-16T00:11:00.132Z,17.57
2022-08-16T00:12:00.098Z,17.58
2022-08-16T00:13:00.068Z,17.57
2022-08-16T00:14:00.096Z,17.54
2022-08-16T00:15:00.069Z,17.55
2022-08-16T00:16:00.112Z,17.55
2022-08-16T00:17:18.626Z,17.54
2022-08-16T00:18:01.099Z,17.55
2022-08-16T00:19:00.026Z,17.54
2022-08-16T00:20:00.078Z,17.55
2022-08-16T00:20:59.966Z,17.54
2022-08-16T00:22:03.201Z,17.54
2022-08-16T00:23:00.938Z,17.54
2022-08-16T00:23:59.986Z,17.55
2022-08-16T00:25:01.012Z,17.54
2022-08-16T00:26:35.154Z,17.54
2022-08-16T00:27:01.004Z,17.55
2022-08-16T00:27:59.924Z,17.55
2022-08-16T00:28:59.877Z,17.55
2022-08-16T00:30:08.989Z,17.55
2022-08-16T00:31:01.060Z,17.55
2022-08-16T00:32:05.750Z,17.55
2022-08-16T00:33:00.819Z,17.57
2022-08-16T00:33:59.804Z,17.58
2022-08-16T00:35:00.657Z,17.57
2022-08-16T00:36:00.314Z,17.57
2022-08-16T00:36:59.840Z,17.58
2022-08-16T00:37:59.743Z,17.60
2022-08-16T00:38:59.732Z,17.60
2022-08-16T00:39:59.802Z,17.63
2022-08-16T00:40:59.731Z,17.60
2022-08-16T00:41:59.772Z,17.63
2022-08-16T00:42:59.692Z,17.65
2022-08-16T00:43:59.662Z,17.63
2022-08-16T00:44:59.651Z,17.65
2022-08-16T00:46:00.645Z,17.63
2022-08-16T00:47:02.411Z,17.65
2022-08-16T00:48:00.639Z,17.65
2022-08-16T00:48:59.654Z,17.63
2022-08-16T00:49:59.645Z,17.66
2022-08-16T00:50:59.644Z,17.65
2022-08-16T00:51:59.571Z,17.66
2022-08-16T00:52:59.874Z,17.66
2022-08-16T00:53:59.548Z,17.65
2022-08-16T00:54:59.617Z,17.65
2022-08-16T00:55:59.593Z,17.66
2022-08-16T00:57:00.101Z,17.65
2022-08-16T00:58:00.799Z,17.63
2022-08-16T00:59:01.251Z,17.65
2022-08-16T00:59:59.732Z,17.65
2022-08-16T01:00:59.517Z,17.63
2022-08-16T01:01:59.456Z,17.63
2022-08-16T01:03:00.156Z,17.62
2022-08-16T01:03:59.399Z,17.62
2022-08-16T01:05:09.510Z,17.60
2022-08-16T01:06:00.379Z,17.62
2022-08-16T01:07:02.124Z,17.62
2022-08-16T01:07:59.730Z,17.60
2022-08-16T01:09:00.078Z,17.58
2022-08-16T01:09:59.335Z,17.58
2022-08-16T01:10:59.914Z,17.60
2022-08-16T01:11:59.325Z,17.58
2022-08-16T01:13:00.377Z,17.58
2022-08-16T01:13:59.351Z,17.60
2022-08-16T01:14:59.266Z,17.58
2022-08-16T01:15:59.334Z,17.58
2022-08-16T01:16:59.248Z,17.60
2022-08-16T01:17:59.326Z,17.60
2022-08-16T01:18:59.264Z,17.63
2022-08-16T01:19:59.223Z,17.60
2022-08-16T01:20:59.253Z,17.60
2022-08-16T01:22:47.606Z,17.58
2022-08-16T01:23:00.398Z,17.62
2022-08-16T01:24:02.097Z,17.60
2022-08-16T01:24:59.203Z,17.58
2022-08-16T01:26:00.284Z,17.58
2022-08-16T01:27:03.673Z,17.58
2022-08-16T01:27:59.105Z,17.58
2022-08-16T01:28:59.124Z,17.58
2022-08-16T01:29:59.894Z,17.57
2022-08-16T01:30:59.090Z,17.57
2022-08-16T01:31:59.131Z,17.55
2022-08-16T01:33:02.971Z,17.54
2022-08-16T01:34:00.050Z,17.54
2022-08-16T01:34:59.037Z,17.54
2022-08-16T01:35:59.020Z,17.52
2022-08-16T01:36:59.035Z,17.52
2022-08-16T01:37:58.971Z,17.49
2022-08-16T01:38:58.974Z,17.49
2022-08-16T01:39:59.032Z,17.47
2022-08-16T01:41:01.981Z,17.45
2022-08-16T01:41:58.980Z,17.42
2022-08-16T01:42:58.933Z,17.42
2022-08-16T01:44:01.231Z,17.42
2022-08-16T01:44:58.939Z,17.39
2022-08-16T01:45:58.858Z,17.39
2022-08-16T01:46:58.917Z,17.36
2022-08-16T01:47:58.868Z,17.31
2022-08-16T01:48:58.817Z,17.31
2022-08-16T01:50:43.049Z,17.30
2022-08-16T01:51:09.080Z,17.28
2022-08-16T01:51:59.807Z,17.28
2022-08-16T01:52:58.776Z,17.25
2022-08-16T01:53:58.758Z,17.24
2022-08-16T01:54:59.435Z,17.21
2022-08-16T01:55:58.806Z,17.20
2022-08-16T01:56:58.727Z,17.20
2022-08-16T01:57:58.697Z,17.17
2022-08-16T01:58:58.707Z,17.13
2022-08-16T01:59:58.699Z,17.13
2022-08-16T02:00:58.689Z,17.13
2022-08-16T02:01:59.853Z,17.09
2022-08-16T02:02:58.661Z,17.07
2022-08-16T02:04:11.111Z,17.06
2022-08-16T02:04:59.639Z,17.05
2022-08-16T02:05:58.596Z,17.02
2022-08-16T02:06:58.603Z,17.00
2022-08-16T02:07:58.567Z,16.99
2022-08-16T02:08:58.585Z,16.97
2022-08-16T02:09:59.621Z,16.94
2022-08-16T02:10:58.555Z,16.94
2022-08-16T02:11:58.565Z,16.92
2022-08-16T02:13:00.171Z,16.88
2022-08-16T02:13:58.509Z,16.88
2022-08-16T02:14:59.514Z,16.88
2022-08-16T02:15:58.478Z,16.85
2022-08-16T02:16:58.466Z,16.84
2022-08-16T02:17:58.438Z,16.82
2022-08-16T02:18:58.423Z,16.82
2022-08-16T02:20:00.656Z,16.81
2022-08-16T02:20:58.417Z,16.80
2022-08-16T02:22:07.634Z,16.80
2022-08-16T02:22:59.636Z,16.77
2022-08-16T02:23:58.439Z,16.76
2022-08-16T02:24:58.352Z,16.74
2022-08-16T02:25:59.997Z,16.74
2022-08-16T02:26:58.323Z,16.73
2022-08-16T02:27:58.302Z,16.73
2022-08-16T02:28:58.306Z,16.72
2022-08-16T02:30:05.314Z,16.70
2022-08-16T02:30:59.336Z,16.70
2022-08-16T02:32:04.045Z,16.69
2022-08-16T02:32:59.279Z,16.67
2022-08-16T02:33:58.259Z,16.66
2022-08-16T02:34:58.272Z,16.66
2022-08-16T02:35:59.985Z,16.65
2022-08-16T02:36:58.190Z,16.62
2022-08-16T02:38:01.827Z,16.62
2022-08-16T02:38:59.174Z,16.59
2022-08-16T02:39:58.173Z,16.58
2022-08-16T02:40:59.031Z,16.58
2022-08-16T02:41:58.118Z,16.57
2022-08-16T02:42:58.130Z,16.55
2022-08-16T02:43:58.098Z,16.57
2022-08-16T02:44:58.117Z,16.52
2022-08-16T02:45:59.080Z,16.51
2022-08-16T02:46:58.095Z,16.51
2022-08-16T02:48:01.840Z,16.49
2022-08-16T02:49:00.364Z,16.48
2022-08-16T02:50:52.722Z,16.47
2022-08-16T02:51:08.063Z,16.45
2022-08-16T02:51:58.987Z,16.44
2022-08-16T02:52:58.090Z,16.44
2022-08-16T02:53:57.975Z,16.44
2022-08-16T02:54:57.998Z,16.40
2022-08-16T02:55:57.965Z,16.39
2022-08-16T02:56:57.932Z,16.39
2022-08-16T02:57:57.940Z,16.37
2022-08-16T02:58:57.962Z,16.37
2022-08-16T02:59:57.926Z,16.36
2022-08-16T03:00:57.995Z,16.36
2022-08-16T03:01:57.990Z,16.33
2022-08-16T03:02:57.907Z,16.33
2022-08-16T03:04:28.910Z,16.33
2022-08-16T03:04:58.959Z,16.32
2022-08-16T03:05:57.832Z,16.30
2022-08-16T03:06:57.807Z,16.29
2022-08-16T03:07:57.841Z,16.30
2022-08-16T03:08:57.818Z,16.27
2022-08-16T03:10:00.490Z,16.27
2022-08-16T03:10:59.332Z,16.27
2022-08-16T03:11:57.770Z,16.27
2022-08-16T03:12:58.253Z,16.26
2022-08-16T03:13:57.740Z,16.25
2022-08-16T03:14:57.776Z,16.22
2022-08-16T03:15:57.717Z,16.25
2022-08-16T03:16:59.212Z,16.21
2022-08-16T03:17:57.672Z,16.21
2022-08-16T03:18:57.667Z,16.21
2022-08-16T03:20:00.410Z,16.21
2022-08-16T03:20:58.622Z,16.21
2022-08-16T03:21:57.634Z,16.18
2022-08-16T03:22:57.606Z,16.18
2022-08-16T03:23:57.604Z,16.17
2022-08-16T03:24:57.876Z,16.17
2022-08-16T03:25:57.608Z,16.18
2022-08-16T03:26:58.034Z,16.18
2022-08-16T03:27:57.561Z,16.17
2022-08-16T03:28:57.569Z,16.18
2022-08-16T03:29:57.535Z,16.17
2022-08-16T03:30:57.542Z,16.18
2022-08-16T03:31:57.519Z,16.16
2022-08-16T03:32:57.524Z,16.17
2022-08-16T03:33:57.449Z,16.16
2022-08-16T03:34:57.479Z,16.17
2022-08-16T03:35:57.454Z,16.16
2022-08-16T03:36:57.430Z,16.17
2022-08-16T03:38:03.306Z,16.14
2022-08-16T03:38:58.442Z,16.14
2022-08-16T03:40:03.057Z,16.14
2022-08-16T03:40:58.376Z,16.14
2022-08-16T03:41:59.838Z,16.14
2022-08-16T03:43:19.055Z,16.11
2022-08-16T03:43:58.323Z,16.13
2022-08-16T03:45:03.331Z,16.13
2022-08-16T03:45:58.313Z,16.13
2022-08-16T03:46:58.319Z,16.14
2022-08-16T03:47:59.755Z,16.13
2022-08-16T03:48:57.286Z,16.11
2022-08-16T03:49:57.271Z,16.11
2022-08-16T03:50:59.906Z,16.10
2022-08-16T03:51:57.244Z,16.10
2022-08-16T03:53:03.153Z,16.08
2022-08-16T03:54:01.239Z,16.08
2022-08-16T03:54:58.266Z,16.07
2022-08-16T03:55:57.229Z,16.07
2022-08-16T03:56:58.595Z,16.08
2022-08-16T03:57:57.193Z,16.07
2022-08-16T03:58:57.202Z,16.07
2022-08-16T03:59:57.132Z,16.07
2022-08-16T04:00:59.433Z,16.07
2022-08-16T04:01:57.099Z,16.06
2022-08-16T04:02:57.110Z,16.06
2022-08-16T04:03:57.142Z,16.04
2022-08-16T04:04:57.069Z,16.02
2022-08-16T04:05:57.048Z,16.02
2022-08-16T04:06:57.040Z,16.02
2022-08-16T04:07:57.032Z,16.04
2022-08-16T04:08:57.047Z,16.00
2022-08-16T04:09:57.035Z,16.02
2022-08-16T04:10:57.980Z,16.00
2022-08-16T04:11:57.042Z,16.00
2022-08-16T04:13:01.963Z,16.02
2022-08-16T04:14:01.492Z,15.99
2022-08-16T04:14:58.351Z,16.00
2022-08-16T04:15:56.960Z,16.00
2022-08-16T04:16:56.914Z,15.99
2022-08-16T04:17:56.943Z,15.99
2022-08-16T04:19:02.105Z,15.99
2022-08-16T04:19:58.253Z,15.98
2022-08-16T04:20:56.887Z,15.99
2022-08-16T04:21:56.884Z,15.98
2022-08-16T04:22:56.825Z,15.99
2022-08-16T04:23:56.814Z,15.98
2022-08-16T04:24:59.450Z,15.99
2022-08-16T04:25:56.855Z,15.98
2022-08-16T04:26:57.783Z,15.99
2022-08-16T04:27:56.786Z,16.00
2022-08-16T04:29:15.192Z,16.00
2022-08-16T04:30:03.344Z,16.00
2022-08-16T04:30:57.757Z,16.00
2022-08-16T04:31:57.984Z,16.00
2022-08-16T04:32:56.712Z,16.02
2022-08-16T04:33:56.684Z,16.02
2022-08-16T04:34:56.691Z,16.02
2022-08-16T04:35:56.673Z,16.02
2022-08-16T04:36:56.952Z,16.02
2022-08-16T04:37:56.654Z,16.04
2022-08-16T04:38:56.637Z,16.00
2022-08-16T04:39:57.263Z,16.02
2022-08-16T04:40:56.602Z,16.04
2022-08-16T04:41:57.400Z,16.04
2022-08-16T04:42:56.612Z,16.06
2022-08-16T04:43:56.680Z,16.06
2022-08-16T04:44:56.562Z,16.04
2022-08-16T04:46:00.882Z,16.06
2022-08-16T04:47:02.281Z,16.07
2022-08-16T04:47:57.539Z,16.10
2022-08-16T04:48:56.509Z,16.11
2022-08-16T04:49:56.545Z,16.11
2022-08-16T04:50:56.471Z,16.13
2022-08-16T04:51:56.567Z,16.14
2022-08-16T04:52:56.450Z,16.17
2022-08-16T04:53:56.480Z,16.17
2022-08-16T04:54:56.418Z,16.21
2022-08-16T04:55:56.409Z,16.22
2022-08-16T04:56:56.408Z,16.25
2022-08-16T04:57:56.487Z,16.27
2022-08-16T04:58:57.682Z,16.27
2022-08-16T04:59:56.571Z,16.30
2022-08-16T05:00:56.396Z,16.30
2022-08-16T05:01:58.794Z,16.34
2022-08-16T05:02:58.819Z,16.36
2022-08-16T05:04:00.275Z,16.37
2022-08-16T05:04:57.296Z,16.42
2022-08-16T05:05:59.752Z,16.42
2022-08-16T05:06:57.285Z,16.47
2022-08-16T05:07:59.507Z,16.48
2022-08-16T05:08:56.399Z,16.51
2022-08-16T05:09:56.256Z,16.54
2022-08-16T05:11:01.351Z,16.57
2022-08-16T05:11:57.656Z,16.59
2022-08-16T05:12:56.697Z,16.63
2022-08-16T05:13:56.186Z,16.67
2022-08-16T05:15:01.764Z,16.69
2022-08-16T05:15:57.845Z,16.72
2022-08-16T05:16:56.298Z,16.72
2022-08-16T05:17:58.749Z,16.76
2022-08-16T05:18:56.832Z,16.77
2022-08-16T05:19:57.197Z,16.81
2022-08-16T05:21:01.499Z,16.81
2022-08-16T05:21:57.083Z,16.85
2022-08-16T05:22:56.120Z,16.88
2022-08-16T05:23:58.598Z,16.90
2022-08-16T05:24:56.052Z,16.95
2022-08-16T05:25:56.044Z,17.00
2022-08-16T05:26:56.754Z,17.05
2022-08-16T05:27:56.560Z,17.10
2022-08-16T05:28:56.126Z,17.13
2022-08-16T05:30:00.907Z,17.15
2022-08-16T05:30:56.983Z,17.18
2022-08-16T05:31:55.965Z,17.18
2022-08-16T05:32:56.021Z,17.22
2022-08-16T05:33:55.921Z,17.25
2022-08-16T05:34:55.951Z,17.27
2022-08-16T05:35:56.101Z,17.30
2022-08-16T05:36:55.920Z,17.31
2022-08-16T05:37:55.920Z,17.35
2022-08-16T05:38:55.942Z,17.36
2022-08-16T05:39:55.892Z,17.39
2022-08-16T05:40:59.841Z,17.42
2022-08-16T05:41:55.935Z,17.43
2022-08-16T05:42:56.240Z,17.46
2022-08-16T05:43:58.978Z,17.47
2022-08-16T05:44:55.816Z,17.50
2022-08-16T05:45:55.777Z,17.54
2022-08-16T05:46:56.009Z,17.55
2022-08-16T05:48:00.389Z,17.57
2022-08-16T05:49:01.688Z,17.58
2022-08-16T05:49:56.749Z,17.63
2022-08-16T05:50:55.696Z,17.66
2022-08-16T05:51:55.789Z,17.68
2022-08-16T05:52:55.668Z,17.68
2022-08-16T05:53:55.679Z,17.71
2022-08-16T05:55:01.634Z,17.73
2022-08-16T05:55:56.673Z,17.76
2022-08-16T05:56:55.666Z,17.79
2022-08-16T05:57:55.610Z,17.81
2022-08-16T05:58:55.697Z,17.83
2022-08-16T05:59:59.881Z,17.84
2022-08-16T06:00:56.584Z,17.87
2022-08-16T06:01:55.609Z,17.92
2022-08-16T06:02:55.536Z,17.95
2022-08-16T06:03:55.545Z,17.99
2022-08-16T06:04:55.559Z,18.03
2022-08-16T06:05:55.518Z,18.05
2022-08-16T06:06:56.788Z,18.08
2022-08-16T06:07:58.307Z,18.11
2022-08-16T06:08:55.483Z,18.16
2022-08-16T06:09:55.484Z,18.20
2022-08-16T06:11:09.829Z,18.24
2022-08-16T06:11:56.434Z,18.29
2022-08-16T06:12:55.979Z,18.34
2022-08-16T06:13:55.538Z,18.38
2022-08-16T06:14:55.391Z,18.42
2022-08-16T06:15:55.374Z,18.47
2022-08-16T06:16:55.372Z,18.50
2022-08-16T06:17:55.365Z,18.54
2022-08-16T06:18:55.367Z,18.56
2022-08-16T06:19:55.342Z,18.60
2022-08-16T06:20:56.169Z,18.61
2022-08-16T06:21:56.138Z,18.66
2022-08-16T06:22:57.502Z,18.71
2022-08-16T06:23:55.309Z,18.74
2022-08-16T06:24:55.994Z,18.76
2022-08-16T06:25:55.269Z,18.81
2022-08-16T06:26:57.423Z,18.82
2022-08-16T06:27:57.443Z,18.89
2022-08-16T06:28:55.242Z,18.91
2022-08-16T06:29:55.191Z,18.94
2022-08-16T06:30:55.181Z,18.99
2022-08-16T06:31:55.181Z,19.05
2022-08-16T06:32:55.187Z,19.09
2022-08-16T06:33:55.185Z,19.13
2022-08-16T06:35:02.047Z,19.17
2022-08-16T06:35:59.734Z,19.20
2022-08-16T06:36:59.476Z,19.24
2022-08-16T06:37:55.100Z,19.24
2022-08-16T06:38:56.162Z,19.28
2022-08-16T06:39:55.106Z,19.31
2022-08-16T06:40:55.050Z,19.34
2022-08-16T06:41:55.103Z,19.38
2022-08-16T06:42:57.452Z,19.40
2022-08-16T06:43:55.063Z,19.45
2022-08-16T06:44:55.008Z,19.47
2022-08-16T06:45:55.104Z,19.49
2022-08-16T06:46:54.990Z,19.52
2022-08-16T06:47:56.569Z,19.53
2022-08-16T06:48:54.957Z,19.56
2022-08-16T06:49:54.945Z,19.57
2022-08-16T06:50:54.936Z,19.63
2022-08-16T06:51:54.943Z,19.65
2022-08-16T06:53:00.697Z,19.68
2022-08-16T06:53:55.878Z,19.71
2022-08-16T06:54:54.875Z,19.75
2022-08-16T06:55:54.877Z,19.79
2022-08-16T06:56:55.322Z,19.82
2022-08-16T06:57:54.837Z,19.86
2022-08-16T06:58:54.823Z,19.90
2022-08-16T06:59:58.351Z,19.93
2022-08-16T07:00:54.841Z,19.98
2022-08-16T07:01:55.439Z,20.01
2022-08-16T07:02:55.203Z,20.02
2022-08-16T07:03:57.497Z,20.05
2022-08-16T07:04:54.745Z,20.10
2022-08-16T07:05:54.737Z,20.15
2022-08-16T07:06:54.735Z,20.16
2022-08-16T07:07:55.129Z,20.20
2022-08-16T07:08:54.691Z,20.23
2022-08-16T07:09:54.724Z,20.29
2022-08-16T07:10:54.683Z,20.29
2022-08-16T07:11:54.688Z,20.32
2022-08-16T07:13:04.105Z,20.35
2022-08-16T07:14:22.995Z,20.40
2022-08-16T07:14:59.903Z,20.42
2022-08-16T07:15:55.645Z,20.46
2022-08-16T07:16:54.634Z,20.49
2022-08-16T07:17:54.575Z,20.53
2022-08-16T07:19:01.612Z,20.54
2022-08-16T07:20:03.778Z,20.58
2022-08-16T07:20:59.952Z,20.63
2022-08-16T07:21:59.639Z,20.66
2022-08-16T07:22:58.860Z,20.68
2022-08-16T07:23:57.912Z,20.74
2022-08-16T07:24:55.515Z,20.75
2022-08-16T07:25:54.470Z,20.81
2022-08-16T07:26:54.482Z,20.83
2022-08-16T07:27:54.443Z,20.86
2022-08-16T07:28:54.432Z,20.93
2022-08-16T07:29:55.505Z,20.96
2022-08-16T07:30:54.431Z,21.00
2022-08-16T07:31:54.452Z,21.04
2022-08-16T07:32:54.391Z,21.06
2022-08-16T07:33:54.893Z,21.09
2022-08-16T07:34:54.350Z,21.12
2022-08-16T07:35:54.358Z,21.16
2022-08-16T07:36:58.207Z,21.18
2022-08-16T07:37:54.350Z,21.21
2022-08-16T07:38:54.324Z,21.25
2022-08-16T07:39:54.651Z,21.27
2022-08-16T07:41:02.118Z,21.28
2022-08-16T07:41:55.319Z,21.30
2022-08-16T07:42:54.259Z,21.31
2022-08-16T07:43:54.283Z,21.34
2022-08-16T07:44:54.272Z,21.33
2022-08-16T07:45:54.292Z,21.34
2022-08-16T07:46:55.620Z,21.36
2022-08-16T07:47:54.220Z,21.34
2022-08-16T07:48:55.180Z,21.34
2022-08-16T07:49:58.137Z,21.34
2022-08-16T07:50:55.809Z,21.36
2022-08-16T07:51:56.037Z,21.34
2022-08-16T07:52:54.119Z,21.34
2022-08-16T07:54:09.442Z,21.36
2022-08-16T07:54:55.320Z,21.36
2022-08-16T07:55:54.085Z,21.34
2022-08-16T07:56:54.213Z,21.34
2022-08-16T07:57:59.765Z,21.34
2022-08-16T07:58:55.518Z,21.34
2022-08-16T07:59:57.148Z,21.36
2022-08-16T08:00:54.084Z,21.36
2022-08-16T08:01:54.038Z,21.36
2022-08-16T08:02:53.995Z,21.37
2022-08-16T08:03:54.005Z,21.37
2022-08-16T08:04:53.984Z,21.38
2022-08-16T08:05:54.033Z,21.40
2022-08-16T08:06:53.952Z,21.43
2022-08-16T08:07:53.987Z,21.43
2022-08-16T08:08:57.530Z,21.45
2022-08-16T08:09:54.934Z,21.45
2022-08-16T08:10:53.908Z,21.45
2022-08-16T08:11:59.821Z,21.48
2022-08-16T08:12:55.074Z,21.48
2022-08-16T08:13:53.972Z,21.49
2022-08-16T08:14:53.937Z,21.52
2022-08-16T08:15:53.841Z,21.53
2022-08-16T08:16:53.843Z,21.53
2022-08-16T08:17:53.802Z,21.55
2022-08-16T08:18:56.117Z,21.58
2022-08-16T08:19:54.793Z,21.58
2022-08-16T08:20:58.897Z,21.59
2022-08-16T08:22:01.393Z,21.61
2022-08-16T08:23:00.804Z,21.61
2022-08-16T08:23:54.760Z,21.64
2022-08-16T08:24:53.761Z,21.64
2022-08-16T08:25:55.845Z,21.67
2022-08-16T08:26:53.724Z,21.70
2022-08-16T08:27:57.478Z,21.73
2022-08-16T08:28:53.663Z,21.76
2022-08-16T08:30:49.016Z,21.77
2022-08-16T08:31:00.622Z,21.78
2022-08-16T08:31:54.632Z,21.85
2022-08-16T08:33:00.020Z,21.90
2022-08-16T08:33:54.648Z,21.93
2022-08-16T08:34:53.596Z,22.00
2022-08-16T08:35:53.605Z,22.00
2022-08-16T08:36:54.488Z,22.05
2022-08-16T08:37:55.103Z,22.07
2022-08-16T08:38:53.547Z,22.11
2022-08-16T08:39:55.248Z,22.12
2022-08-16T08:40:53.510Z,22.15
2022-08-16T08:41:53.553Z,22.16
2022-08-16T08:42:57.389Z,22.16
2022-08-16T08:43:54.536Z,22.18
2022-08-16T08:44:53.472Z,22.23
2022-08-16T08:45:53.759Z,22.24
2022-08-16T08:47:00.671Z,22.24
2022-08-16T08:47:58.616Z,22.29
2022-08-16T08:48:59.607Z,22.29
2022-08-16T08:49:55.554Z,22.31
2022-08-16T08:50:53.397Z,22.33
2022-08-16T08:51:53.408Z,22.34
2022-08-16T08:52:53.399Z,22.38
2022-08-16T08:53:57.903Z,22.41
2022-08-16T08:54:54.340Z,22.45
2022-08-16T08:55:59.007Z,22.48
2022-08-16T08:56:54.385Z,22.52
2022-08-16T08:57:53.321Z,22.59
2022-08-16T08:58:54.941Z,22.63
2022-08-16T08:59:54.366Z,22.69
2022-08-16T09:00:53.253Z,22.71
2022-08-16T09:01:57.853Z,22.79
2022-08-16T09:02:54.443Z,22.82
2022-08-16T09:03:53.268Z,22.85
2022-08-16T09:04:53.253Z,22.88
2022-08-16T09:05:53.183Z,22.92
2022-08-16T09:06:53.244Z,22.94
2022-08-16T09:08:00.551Z,22.97
2022-08-16T09:08:54.183Z,23.00
2022-08-16T09:10:06.176Z,23.04
2022-08-16T09:10:58.906Z,23.09
2022-08-16T09:12:04.431Z,23.15
2022-08-16T09:12:54.163Z,23.21
2022-08-16T09:13:53.106Z,23.26
2022-08-16T09:14:53.171Z,23.29
2022-08-16T09:15:53.066Z,23.38
2022-08-16T09:17:01.461Z,23.45
2022-08-16T09:17:54.948Z,23.52
2022-08-16T09:18:56.850Z,23.57
2022-08-16T09:19:55.694Z,23.62
2022-08-16T09:20:59.374Z,23.70
2022-08-16T09:21:56.171Z,23.74
2022-08-16T09:22:53.200Z,23.78
2022-08-16T09:23:52.983Z,23.81
2022-08-16T09:24:58.163Z,23.84
2022-08-16T09:25:53.959Z,23.89
2022-08-16T09:26:52.946Z,23.93
2022-08-16T09:27:56.772Z,23.99
2022-08-16T09:29:15.314Z,24.04
2022-08-16T09:30:00.083Z,24.11
2022-08-16T09:30:53.871Z,24.17
2022-08-16T09:31:53.648Z,24.24
2022-08-16T09:32:52.841Z,24.29
2022-08-16T09:33:52.849Z,24.37
2022-08-16T09:34:52.821Z,24.40
2022-08-16T09:35:53.326Z,24.49
2022-08-16T09:36:54.582Z,24.55
2022-08-16T09:38:00.471Z,24.58
2022-08-16T09:38:53.788Z,24.59
2022-08-16T09:39:53.860Z,24.61
2022-08-16T09:40:53.236Z,24.66
2022-08-16T09:41:53.449Z,24.69
2022-08-16T09:42:56.624Z,24.71
2022-08-16T09:44:00.702Z,24.75
2022-08-16T09:45:10.545Z,24.78
2022-08-16T09:45:54.475Z,24.83
2022-08-16T09:46:57.513Z,24.89
2022-08-16T09:47:57.094Z,24.93
2022-08-16T09:48:52.664Z,24.96
2022-08-16T09:49:53.317Z,25.01
2022-08-16T09:50:52.618Z,25.07
2022-08-16T09:51:52.617Z,25.11
2022-08-16T09:52:52.587Z,25.15
2022-08-16T09:53:53.825Z,25.20
2022-08-16T09:54:52.598Z,25.23
2022-08-16T09:55:52.557Z,25.29
2022-08-16T09:56:56.485Z,25.32
2022-08-16T09:57:53.126Z,25.29
2022-08-16T09:59:05.701Z,25.26
2022-08-16T09:59:56.096Z,25.23
2022-08-16T10:00:52.498Z,25.17
2022-08-16T10:01:52.478Z,25.12
2022-08-16T10:02:52.475Z,25.11
2022-08-16T10:04:01.944Z,25.12
2022-08-16T10:04:55.074Z,25.14
2022-08-16T10:05:52.423Z,25.17
2022-08-16T10:06:52.469Z,25.15
2022-08-16T10:07:55.974Z,25.12
2022-08-16T10:09:04.399Z,25.09
2022-08-16T10:09:54.834Z,25.07
2022-08-16T10:10:52.358Z,25.05
2022-08-16T10:11:52.362Z,25.00
2022-08-16T10:12:55.701Z,24.96
2022-08-16T10:13:52.338Z,24.89
2022-08-16T10:14:52.321Z,24.85
2022-08-16T10:15:55.212Z,24.80
2022-08-16T10:16:57.489Z,24.77
2022-08-16T10:18:01.562Z,24.71
2022-08-16T10:19:06.695Z,24.69
2022-08-16T10:19:53.252Z,24.67
2022-08-16T10:20:52.250Z,24.66
2022-08-16T10:21:56.042Z,24.67
2022-08-16T10:22:58.775Z,24.67
2022-08-16T10:23:53.694Z,24.69
2022-08-16T10:24:55.803Z,24.74
2022-08-16T10:27:16.312Z,24.77
2022-08-16T10:27:20.323Z,24.80
2022-08-16T10:27:56.888Z,24.82
2022-08-16T10:28:53.161Z,24.85
2022-08-16T10:30:00.359Z,24.86
2022-08-16T10:30:56.310Z,24.85
2022-08-16T10:31:53.987Z,24.89
2022-08-16T10:32:52.111Z,24.90
2022-08-16T10:33:52.105Z,24.92
2022-08-16T10:34:52.365Z,24.94
2022-08-16T10:35:52.474Z,25.02
2022-08-16T10:36:54.294Z,25.05
2022-08-16T10:37:52.294Z,25.08
2022-08-16T10:38:52.187Z,25.12
2022-08-16T10:39:52.174Z,25.22
2022-08-16T10:40:52.026Z,25.29
2022-08-16T10:41:51.960Z,25.37
2022-08-16T10:42:51.976Z,25.42
2022-08-16T10:43:52.151Z,25.51
2022-08-16T10:44:54.028Z,25.57
2022-08-16T10:46:00.555Z,25.60
2022-08-16T10:46:53.004Z,25.62
2022-08-16T10:48:02.710Z,25.64
2022-08-16T10:48:52.949Z,25.74
2022-08-16T10:49:51.931Z,25.81
2022-08-16T10:50:51.873Z,25.86
2022-08-16T10:52:01.528Z,25.93
2022-08-16T10:52:56.848Z,26.01
2022-08-16T10:53:52.830Z,26.07
2022-08-16T10:54:59.418Z,26.16
2022-08-16T10:55:57.797Z,26.22
2022-08-16T10:56:56.803Z,26.30
2022-08-16T10:57:51.768Z,26.32
2022-08-16T10:58:51.751Z,26.38
2022-08-16T10:59:58.249Z,26.39
2022-08-16T11:00:57.271Z,26.39
2022-08-16T11:02:59.696Z,26.50
2022-08-16T11:03:56.969Z,26.54
2022-08-16T11:05:09.024Z,26.56
2022-08-16T11:06:00.096Z,26.59
2022-08-16T11:07:08.753Z,26.61
2022-08-16T11:07:53.783Z,26.61
2022-08-16T11:09:20.847Z,26.60
2022-08-16T11:09:52.643Z,26.59
2022-08-16T11:11:04.972Z,26.57
2022-08-16T11:12:14.198Z,26.56
2022-08-16T11:12:52.944Z,26.61
2022-08-16T11:14:00.019Z,26.61
2022-08-16T11:15:55.430Z,26.61
2022-08-16T11:17:10.926Z,26.61
2022-08-16T11:18:48.238Z,26.61
2022-08-16T11:19:06.088Z,26.64
2022-08-16T11:20:52.479Z,26.71
2022-08-16T11:22:52.450Z,26.81
2022-08-16T11:23:57.967Z,26.82
2022-08-16T11:26:10.408Z,26.87
2022-08-16T11:27:18.697Z,26.90
2022-08-16T11:27:52.397Z,26.93
2022-08-16T11:29:52.485Z,27.00
2022-08-16T11:30:57.319Z,27.05
2022-08-16T11:31:54.026Z,27.11
2022-08-16T11:32:51.336Z,27.16
2022-08-16T11:33:52.767Z,27.23
2022-08-16T11:35:10.645Z,27.28
2022-08-16T11:36:53.874Z,27.30
2022-08-16T11:38:47.121Z,27.34
2022-08-16T11:38:57.593Z,27.36
2022-08-16T11:39:59.653Z,27.31
2022-08-16T11:40:53.138Z,27.33
2022-08-16T11:41:53.125Z,27.28
2022-08-16T11:42:51.194Z,27.28
2022-08-16T11:43:51.409Z,27.33
2022-08-16T11:44:56.175Z,27.36
2022-08-16T11:45:54.280Z,27.41
2022-08-16T11:46:51.143Z,27.45
2022-08-16T11:47:51.197Z,27.48
2022-08-16T11:48:51.114Z,27.49
2022-08-16T11:49:51.099Z,27.52
2022-08-16T11:50:51.145Z,27.55
2022-08-16T11:51:51.102Z,27.59
2022-08-16T11:52:51.072Z,27.61
2022-08-16T11:53:51.796Z,27.64
2022-08-16T11:54:57.061Z,27.68
2022-08-16T11:55:54.590Z,27.68
2022-08-16T11:56:52.476Z,27.71
2022-08-16T11:57:56.343Z,27.74
2022-08-16T11:58:56.925Z,27.75
2022-08-16T11:59:51.970Z,27.79
2022-08-16T12:00:52.888Z,27.84
2022-08-16T12:01:59.085Z,27.89
2022-08-16T12:02:51.981Z,27.90
2022-08-16T12:03:50.975Z,27.83
2022-08-16T12:04:51.783Z,27.86
2022-08-16T12:05:51.999Z,27.90
2022-08-16T12:06:53.549Z,27.91
2022-08-16T12:07:50.896Z,27.94
2022-08-16T12:08:51.002Z,27.99
2022-08-16T12:09:50.859Z,28.03
2022-08-16T12:10:50.893Z,28.06
2022-08-16T12:11:52.770Z,28.11
2022-08-16T12:12:50.868Z,28.08
2022-08-16T12:13:50.800Z,28.16
2022-08-16T12:14:59.218Z,28.21
2022-08-16T12:15:51.786Z,28.28
2022-08-16T12:16:55.678Z,28.33
2022-08-16T12:17:51.979Z,28.41
2022-08-16T12:18:50.761Z,28.49
2022-08-16T12:19:50.728Z,28.57
2022-08-16T12:20:50.780Z,28.64
2022-08-16T12:21:58.950Z,28.72
2022-08-16T12:22:51.695Z,28.79
2022-08-16T12:23:50.687Z,28.82
2022-08-16T12:24:52.052Z,28.86
2022-08-16T12:25:51.018Z,28.91
2022-08-16T12:26:50.656Z,28.94
2022-08-16T12:27:50.655Z,28.97
2022-08-16T12:28:54.895Z,29.05
2022-08-16T12:29:51.645Z,29.13
2022-08-16T12:30:50.637Z,29.18
2022-08-16T12:32:01.353Z,29.26
2022-08-16T12:32:53.155Z,29.33
2022-08-16T12:33:50.680Z,29.42
2022-08-16T12:34:53.091Z,29.52
2022-08-16T12:35:50.557Z,29.58
2022-08-16T12:36:50.536Z,29.65
2022-08-16T12:37:56.544Z,29.70
2022-08-16T12:38:53.173Z,29.77
2022-08-16T12:39:51.101Z,29.85
2022-08-16T12:40:50.525Z,29.94
2022-08-16T12:41:50.451Z,29.94
2022-08-16T12:42:53.006Z,29.91
2022-08-16T12:43:50.441Z,29.92
2022-08-16T12:44:50.478Z,29.95
2022-08-16T12:45:50.518Z,29.92
2022-08-16T12:46:50.904Z,29.97
2022-08-16T12:47:50.413Z,30.04
2022-08-16T12:48:50.434Z,30.10
2022-08-16T12:49:50.459Z,30.19
2022-08-16T12:50:50.631Z,30.29
2022-08-16T12:51:58.599Z,30.39
2022-08-16T12:52:52.810Z,30.45
2022-08-16T12:53:50.431Z,30.52
2022-08-16T12:54:55.056Z,30.54
2022-08-16T12:55:51.289Z,30.59
2022-08-16T12:56:50.496Z,30.60
2022-08-16T12:57:58.605Z,30.63
2022-08-16T12:58:52.048Z,30.56